createdAt,value
2022-12-20T00:01:54.828Z,101240.78
2022-12-20T00:04:22.884Z,101232.63
2022-12-20T00:06:52.321Z,101232.03
2022-12-20T00:09:20.365Z,101232.84
2022-12-20T00:11:48.347Z,101242.38
2022-12-20T00:14:16.253Z,101230.94
2022-12-20T00:16:44.484Z,101220.06
2022-12-20T00:19:14.355Z,101225.50
2022-12-20T00:21:42.407Z,101218.16
2022-12-20T00:24:13.128Z,101211.91
2022-12-20T00:26:41.089Z,101217.34
2022-12-20T00:29:09.095Z,101212.41
2022-12-20T00:31:37.244Z,101207.47
2022-12-20T00:34:05.358Z,101202.66
2022-12-20T00:36:34.421Z,101193.41
2022-12-20T00:39:03.849Z,101199.47
2022-12-20T00:41:34.953Z,101192.59
2022-12-20T00:44:03.371Z,101198.84
2022-12-20T00:46:33.135Z,101194.03
2022-12-20T00:49:01.348Z,101186.53
2022-12-20T00:51:32.669Z,101195.50
2022-12-20T00:54:00.875Z,101200.34
2022-12-20T00:56:28.802Z,101199.84
2022-12-20T00:59:00.090Z,101189.56
2022-12-20T01:01:30.442Z,101190.19
2022-12-20T01:03:59.485Z,101182.53
2022-12-20T01:06:28.039Z,101198.84
2022-12-20T01:08:56.587Z,101204.25
2022-12-20T01:11:26.034Z,101192.78
2022-12-20T01:13:56.908Z,101189.78
2022-12-20T01:16:28.583Z,101183.84
2022-12-20T01:18:56.565Z,101168.97
2022-12-20T01:21:27.259Z,101164.81
2022-12-20T01:23:56.461Z,101179.50
2022-12-20T01:26:26.924Z,101186.53
2022-12-20T01:28:56.736Z,101179.72
2022-12-20T01:31:26.508Z,101173.66
2022-12-20T01:33:54.474Z,101177.50
2022-12-20T01:36:25.259Z,101170.47
2022-12-20T01:38:57.531Z,101167.91
2022-12-20T01:41:25.881Z,101164.41
2022-12-20T01:43:55.988Z,101170.34
2022-12-20T01:46:27.341Z,101163.28
2022-12-20T01:49:00.123Z,101164.59
2022-12-20T01:51:30.643Z,101171.94
2022-12-20T01:54:02.983Z,101163.81
2022-12-20T01:56:31.000Z,101150.06
2022-12-20T01:58:59.772Z,101151.72
2022-12-20T02:01:29.311Z,101157.94
2022-12-20T02:03:57.554Z,101149.47
2022-12-20T02:06:27.896Z,101159.13
2022-12-20T02:08:59.294Z,101146.81
2022-12-20T02:11:50.507Z,101145.53
2022-12-20T02:14:43.801Z,101140.41
2022-12-20T02:17:25.677Z,101136.06
2022-12-20T02:20:23.283Z,101143.25
2022-12-20T02:23:10.691Z,101147.88
2022-12-20T02:25:47.617Z,101144.03
2022-12-20T02:28:33.915Z,101135.91
2022-12-20T02:31:11.848Z,101144.53
2022-12-20T02:33:43.376Z,101146.94
2022-12-20T02:36:11.433Z,101145.66
2022-12-20T02:38:39.876Z,101140.53
2022-12-20T02:41:12.341Z,101137.00
2022-12-20T02:44:01.790Z,101138.13
2022-12-20T02:46:33.940Z,101128.34
2022-12-20T02:49:08.032Z,101140.03
2022-12-20T02:51:36.268Z,101151.09
2022-12-20T02:54:05.113Z,101142.13
2022-12-20T02:56:37.370Z,101149.47
2022-12-20T02:59:11.447Z,101148.19
2022-12-20T03:01:46.330Z,101167.00
2022-12-20T03:04:15.680Z,101145.91
2022-12-20T03:06:58.298Z,101149.53
2022-12-20T03:09:26.309Z,101141.69
2022-12-20T03:11:55.037Z,101158.31
2022-12-20T03:14:23.143Z,101156.19
2022-12-20T03:16:52.602Z,101161.44
2022-12-20T03:19:20.927Z,101156.59
2022-12-20T03:21:48.961Z,101146.38
2022-12-20T03:24:17.304Z,101164.56
2022-12-20T03:26:45.774Z,101143.75
2022-12-20T03:29:14.043Z,101136.72
2022-12-20T03:31:41.953Z,101138.44
2022-12-20T03:34:11.311Z,101140.19
2022-12-20T03:36:39.420Z,101123.88
2022-12-20T03:39:07.464Z,101111.72
2022-12-20T03:41:35.406Z,101101.06
2022-12-20T03:44:03.316Z,101106.00
2022-12-20T03:46:31.999Z,101105.19
2022-12-20T03:49:00.502Z,101107.09
2022-12-20T03:51:29.827Z,101105.47
2022-12-20T03:53:57.871Z,101105.63
2022-12-20T03:56:25.792Z,101125.69
2022-12-20T03:58:53.857Z,101109.22
2022-12-20T04:01:24.532Z,101104.63
2022-12-20T04:03:52.744Z,101121.50
2022-12-20T04:06:21.431Z,101120.72
2022-12-20T04:08:51.199Z,101121.50
2022-12-20T04:11:19.306Z,101118.50
2022-12-20T04:13:48.554Z,101119.88
2022-12-20T04:16:18.610Z,101123.72
2022-12-20T04:18:46.724Z,101119.88
2022-12-20T04:21:15.641Z,101102.00
2022-12-20T04:23:44.572Z,101106.94
2022-12-20T04:26:14.421Z,101102.53
2022-12-20T04:28:42.359Z,101101.91
2022-12-20T04:31:10.707Z,101092.94
2022-12-20T04:33:39.063Z,101097.59
2022-12-20T04:36:07.781Z,101105.72
2022-12-20T04:38:35.833Z,101106.03
2022-12-20T04:41:03.803Z,101110.66
2022-12-20T04:43:33.123Z,101106.63
2022-12-20T04:46:01.240Z,101116.69
2022-12-20T04:51:17.813Z,101124.34
2022-12-20T04:53:48.555Z,101111.56
2022-12-20T04:56:19.395Z,101112.38
2022-12-20T04:58:50.071Z,101112.84
2022-12-20T05:01:18.697Z,101105.03
2022-12-20T05:03:46.793Z,101104.22
2022-12-20T05:06:15.678Z,101086.53
2022-12-20T05:08:43.633Z,101106.03
2022-12-20T05:11:11.687Z,101101.41
2022-12-20T05:13:39.639Z,101088.94
2022-12-20T05:16:09.379Z,101083.69
2022-12-20T05:18:40.544Z,101075.25
2022-12-20T05:21:28.391Z,101077.69
2022-12-20T05:24:13.710Z,101071.41
2022-12-20T05:26:42.249Z,101055.13
2022-12-20T05:29:10.266Z,101064.09
2022-12-20T05:31:39.669Z,101067.63
2022-12-20T05:34:07.819Z,101050.53
2022-12-20T05:36:35.713Z,101057.84
2022-12-20T05:39:04.743Z,101060.56
2022-12-20T05:41:33.220Z,101059.47
2022-12-20T05:44:02.030Z,101052.94
2022-12-20T05:46:29.923Z,101056.75
2022-12-20T05:48:59.314Z,101048.09
2022-12-20T05:51:27.259Z,101058.38
2022-12-20T05:53:55.137Z,101052.94
2022-12-20T05:56:23.183Z,101040.47
2022-12-20T05:58:51.237Z,101031.81
2022-12-20T06:01:19.549Z,101041.88
2022-12-20T06:03:47.790Z,101045.91
2022-12-20T06:06:17.160Z,101042.25
2022-12-20T06:08:45.089Z,101023.25
2022-12-20T06:11:13.129Z,101033.19
2022-12-20T06:13:41.144Z,101027.75
2022-12-20T06:16:09.149Z,101044.06
2022-12-20T06:18:37.159Z,101042.44
2022-12-20T06:21:05.254Z,101029.19
2022-12-20T06:23:34.665Z,101038.13
2022-12-20T06:26:04.339Z,101031.41
2022-12-20T06:28:32.499Z,101050.91
2022-12-20T06:31:00.433Z,101040.84
2022-12-20T06:33:28.312Z,101037.34
2022-12-20T06:35:56.213Z,101034.63
2022-12-20T06:38:24.210Z,101022.81
2022-12-20T06:40:53.698Z,101014.69
2022-12-20T06:43:21.635Z,101015.47
2022-12-20T06:45:49.653Z,101004.94
2022-12-20T06:48:17.706Z,101007.66
2022-12-20T06:50:48.067Z,100996.78
2022-12-20T06:53:20.120Z,101001.59
2022-12-20T06:55:50.239Z,100978.16
2022-12-20T06:58:19.994Z,100973.22
2022-12-20T07:00:48.175Z,100980.25
2022-12-20T07:03:16.739Z,100985.50
2022-12-20T07:05:44.943Z,100983.94
2022-12-20T07:08:12.784Z,100971.97
2022-12-20T07:10:40.662Z,100977.41
2022-12-20T07:13:09.236Z,100982.84
2022-12-20T07:15:38.628Z,100987.47
2022-12-20T07:18:06.981Z,100991.78
2022-12-20T07:20:34.987Z,100983.63
2022-12-20T07:23:02.960Z,100968.13
2022-12-20T07:25:31.022Z,100966.53
2022-12-20T07:27:58.959Z,100963.81
2022-12-20T07:30:26.874Z,100972.44
2022-12-20T07:32:56.210Z,100965.13
2022-12-20T07:35:24.404Z,100967.53
2022-12-20T07:37:54.140Z,100965.94
2022-12-20T07:40:22.409Z,100956.69
2022-12-20T07:42:50.682Z,100959.88
2022-12-20T07:45:18.913Z,100964.06
2022-12-20T07:47:46.875Z,100961.03
2022-12-20T07:50:16.238Z,100962.94
2022-12-20T07:52:47.901Z,100968.84
2022-12-20T07:55:16.301Z,100962.31
2022-12-20T07:57:48.818Z,100959.59
2022-12-20T08:00:18.825Z,100979.25
2022-12-20T08:02:52.507Z,100987.72
2022-12-20T08:05:22.577Z,100992.03
2022-12-20T08:07:56.800Z,100985.16
2022-12-20T08:10:27.733Z,100987.38
2022-12-20T08:12:56.729Z,100982.94
2022-12-20T08:15:25.435Z,100979.13
2022-12-20T08:17:53.452Z,100976.88
2022-12-20T08:20:22.999Z,100966.34
2022-12-20T08:22:50.953Z,100959.78
2022-12-20T08:25:19.396Z,100955.94
2022-12-20T08:27:47.289Z,100948.91
2022-12-20T08:30:15.909Z,100952.91
2022-12-20T08:32:43.986Z,100952.31
2022-12-20T08:35:13.091Z,100952.78
2022-12-20T08:37:42.441Z,100955.97
2022-12-20T08:40:11.449Z,100959.50
2022-12-20T08:42:39.492Z,100970.38
2022-12-20T08:45:08.220Z,100968.97
2022-12-20T08:47:36.074Z,100959.38
2022-12-20T08:50:03.891Z,100956.84
2022-12-20T08:52:31.884Z,100967.72
2022-12-20T08:55:02.021Z,100955.72
2022-12-20T08:57:30.382Z,100958.44
2022-12-20T08:59:58.222Z,100972.50
2022-12-20T09:02:26.301Z,100961.63
2022-12-20T09:04:54.291Z,100956.69
2022-12-20T09:07:22.102Z,100946.31
2022-12-20T09:09:49.984Z,100963.44
2022-12-20T09:12:19.212Z,100955.75
2022-12-20T09:14:47.421Z,100961.34
2022-12-20T09:17:15.287Z,100965.19
2022-12-20T09:19:43.143Z,100966.16
2022-12-20T09:22:11.086Z,100971.47
2022-12-20T09:24:39.156Z,100966.97
2022-12-20T09:27:07.024Z,100972.09
2022-12-20T09:29:36.313Z,100972.09
2022-12-20T09:32:04.472Z,100973.53
2022-12-20T09:34:32.432Z,100981.38
2022-12-20T09:37:00.282Z,100981.06
2022-12-20T09:39:28.134Z,100972.28
2022-12-20T09:41:56.064Z,100971.50
2022-12-20T09:44:28.139Z,100969.09
2022-12-20T09:47:06.442Z,100971.81
2022-12-20T09:49:42.760Z,100967.47
2022-12-20T09:52:31.810Z,100961.56
2022-12-20T09:55:14.855Z,100972.28
2022-12-20T09:57:55.534Z,100961.41
2022-12-20T10:00:23.774Z,100957.75
2022-12-20T10:03:04.210Z,100959.03
2022-12-20T10:05:42.223Z,100964.00
2022-12-20T10:08:24.373Z,100947.03
2022-12-20T10:10:57.864Z,100946.38
2022-12-20T10:13:48.703Z,100964.94
2022-12-20T10:16:33.736Z,100950.22
2022-12-20T10:19:17.101Z,100945.31
2022-12-20T10:21:51.158Z,100942.06
2022-12-20T10:24:21.525Z,100937.44
2022-12-20T10:26:51.784Z,100933.91
2022-12-20T10:29:21.249Z,100930.41
2022-12-20T10:31:51.778Z,100930.63
2022-12-20T10:34:21.087Z,100913.19
2022-12-20T10:36:52.491Z,100910.47
2022-12-20T10:39:41.985Z,100908.34
2022-12-20T10:42:26.281Z,100907.75
2022-12-20T10:44:54.930Z,100916.38
2022-12-20T10:47:31.117Z,100907.59
2022-12-20T10:50:10.997Z,100895.59
2022-12-20T10:52:39.003Z,100891.75
2022-12-20T10:55:36.850Z,100888.72
2022-12-20T10:58:06.639Z,100893.69
2022-12-20T11:00:34.749Z,100888.41
2022-12-20T11:03:16.167Z,100886.78
2022-12-20T11:05:57.710Z,100881.69
2022-12-20T11:08:40.445Z,100880.25
2022-12-20T11:11:19.196Z,100879.75
2022-12-20T11:13:47.914Z,100873.53
2022-12-20T11:16:36.457Z,100868.09
2022-12-20T11:19:17.684Z,100857.84
2022-12-20T11:21:53.495Z,100858.81
2022-12-20T11:24:30.808Z,100863.28
2022-12-20T11:27:15.407Z,100858.00
2022-12-20T11:30:06.940Z,100861.03
2022-12-20T11:32:51.071Z,100858.97
2022-12-20T11:35:23.548Z,100859.78
2022-12-20T11:38:09.256Z,100858.19
2022-12-20T11:40:45.201Z,100871.44
2022-12-20T11:43:39.064Z,100858.19
2022-12-20T11:46:31.870Z,100847.63
2022-12-20T11:49:15.768Z,100849.69
2022-12-20T11:51:47.995Z,100849.53
2022-12-20T11:54:23.072Z,100844.09
2022-12-20T11:56:56.407Z,100841.38
2022-12-20T11:59:38.733Z,100840.09
2022-12-20T12:02:12.590Z,100833.19
2022-12-20T12:04:45.131Z,100829.34
2022-12-20T12:07:17.631Z,100827.09
2022-12-20T12:09:56.534Z,100827.09
2022-12-20T12:12:28.191Z,100833.50
2022-12-20T12:15:02.278Z,100828.53
2022-12-20T12:17:39.563Z,100832.06
2022-12-20T12:20:23.821Z,100824.53
2022-12-20T12:22:58.982Z,100817.63
2022-12-20T12:25:28.568Z,100836.38
2022-12-20T12:27:56.444Z,100832.84
2022-12-20T12:30:26.859Z,100827.38
2022-12-20T12:32:59.685Z,100822.88
2022-12-20T12:35:51.660Z,100820.16
2022-12-20T12:39:02.391Z,100819.03
2022-12-20T12:42:03.245Z,100824.63
2022-12-20T12:44:41.786Z,100817.75
2022-12-20T12:47:18.412Z,100827.19
2022-12-20T12:49:50.505Z,100829.59
2022-12-20T12:52:46.203Z,100826.22
2022-12-20T12:55:43.745Z,100831.03
2022-12-20T12:58:46.460Z,100817.91
2022-12-20T13:01:52.070Z,100832.47
2022-12-20T13:04:52.735Z,100830.41
2022-12-20T13:07:30.386Z,100832.16
2022-12-20T13:09:58.253Z,100829.63
2022-12-20T13:12:59.989Z,100828.84
2022-12-20T13:16:14.240Z,100833.81
2022-12-20T13:21:39.832Z,100823.41
2022-12-20T13:24:56.334Z,100819.75
2022-12-20T13:27:33.737Z,100823.72
2022-12-20T13:30:18.883Z,100818.63
2022-12-20T13:33:23.954Z,100813.00
2022-12-20T13:36:01.555Z,100818.13
2022-12-20T13:38:52.880Z,100831.25
2022-12-20T13:41:34.776Z,100821.97
2022-12-20T13:44:19.713Z,100822.31
2022-12-20T13:46:53.610Z,100829.66
2022-12-20T13:49:26.810Z,100832.53
2022-12-20T13:52:15.642Z,100834.00
2022-12-20T13:54:47.282Z,100832.88
2022-12-20T13:57:17.492Z,100842.97
2022-12-20T13:59:48.427Z,100844.09
2022-12-20T14:02:21.480Z,100842.00
2022-12-20T14:04:59.405Z,100847.94
2022-12-20T14:07:29.564Z,100842.50
2022-12-20T14:10:01.101Z,100845.69
2022-12-20T14:12:36.524Z,100843.28
2022-12-20T14:15:23.519Z,100839.28
2022-12-20T14:17:51.421Z,100835.44
2022-12-20T14:20:24.594Z,100839.28
2022-12-20T14:23:04.310Z,100839.13
2022-12-20T14:25:39.277Z,100842.00
2022-12-20T14:28:21.560Z,100842.81
2022-12-20T14:30:55.323Z,100831.91
2022-12-20T14:33:30.374Z,100824.56
2022-12-20T14:35:59.982Z,100827.28
2022-12-20T14:38:31.711Z,100822.81
2022-12-20T14:41:01.089Z,100824.75
2022-12-20T14:43:33.698Z,100813.06
2022-12-20T14:46:09.826Z,100825.22
2022-12-20T14:48:37.931Z,100812.09
2022-12-20T14:51:06.844Z,100815.94
2022-12-20T14:53:36.143Z,100810.50
2022-12-20T14:56:07.334Z,100808.25
2022-12-20T14:58:36.075Z,100798.19
2022-12-20T15:01:20.646Z,100795.66
2022-12-20T15:03:52.925Z,100795.31
2022-12-20T15:06:35.864Z,100795.47
2022-12-20T15:09:05.423Z,100787.78
2022-12-20T15:11:36.536Z,100793.22
2022-12-20T15:14:14.065Z,100797.88
2022-12-20T15:16:48.504Z,100796.13
2022-12-20T15:19:16.520Z,100788.25
2022-12-20T15:21:45.766Z,100783.63
2022-12-20T15:24:15.445Z,100777.41
2022-12-20T15:26:44.664Z,100776.59
2022-12-20T15:29:18.063Z,100778.84
2022-12-20T15:31:47.466Z,100787.47
2022-12-20T15:34:20.128Z,100785.88
2022-12-20T15:36:48.041Z,100783.47
2022-12-20T15:39:16.028Z,100784.28
2022-12-20T15:41:48.308Z,100789.06
2022-12-20T15:44:18.993Z,100786.84
2022-12-20T15:46:47.365Z,100783.63
2022-12-20T15:49:17.028Z,100774.66
2022-12-20T15:51:53.820Z,100777.25
2022-12-20T15:54:27.562Z,100775.66
2022-12-20T15:56:57.805Z,100780.25
2022-12-20T15:59:59.021Z,100775.66
2022-12-20T16:02:22.601Z,100784.41
2022-12-20T16:04:50.737Z,100774.03
2022-12-20T16:07:18.599Z,100772.41
2022-12-20T16:09:46.941Z,100770.50
2022-12-20T16:12:18.845Z,100761.53
2022-12-20T16:14:46.750Z,100762.34
2022-12-20T16:17:15.268Z,100762.19
2022-12-20T16:19:43.445Z,100757.56
2022-12-20T16:22:16.039Z,100755.16
2022-12-20T16:24:44.743Z,100761.22
2022-12-20T16:27:12.684Z,100755.78
2022-12-20T16:29:42.321Z,100765.22
2022-12-20T16:32:15.777Z,100760.59
2022-12-20T16:34:43.805Z,100758.34
2022-12-20T16:37:12.851Z,100755.94
2022-12-20T16:39:40.893Z,100762.19
2022-12-20T16:42:14.873Z,100765.22
2022-12-20T16:44:45.538Z,100760.13
2022-12-20T16:47:14.583Z,100754.19
2022-12-20T16:49:51.175Z,100765.06
2022-12-20T16:52:21.249Z,100763.78
2022-12-20T16:54:49.661Z,100761.88
2022-12-20T16:57:17.603Z,100770.34
2022-12-20T16:59:46.937Z,100766.50
2022-12-20T17:02:25.131Z,100758.19
2022-12-20T17:04:53.192Z,100765.25
2022-12-20T17:07:21.241Z,100754.66
2022-12-20T17:09:49.289Z,100758.69
2022-12-20T17:12:18.839Z,100761.41
2022-12-20T17:14:48.960Z,100754.84
2022-12-20T17:17:17.432Z,100749.88
2022-12-20T17:19:45.413Z,100761.22
2022-12-20T17:24:59.809Z,100763.63
2022-12-20T17:27:27.747Z,100759.00
2022-12-20T17:29:57.097Z,100762.19
2022-12-20T17:32:26.610Z,100755.94
2022-12-20T17:34:55.194Z,100747.78
2022-12-20T17:37:24.673Z,100757.88
2022-12-20T17:39:52.599Z,100752.78
2022-12-20T17:42:23.241Z,100751.47
2022-12-20T17:44:56.359Z,100746.03
2022-12-20T17:47:24.295Z,100744.44
2022-12-20T17:49:53.323Z,100738.22
2022-12-20T17:52:21.714Z,100736.28
2022-12-20T17:54:49.813Z,100735.16
2022-12-20T17:57:18.015Z,100736.28
2022-12-20T17:59:47.021Z,100737.41
2022-12-20T18:02:22.624Z,100745.25
2022-12-20T18:04:51.087Z,100745.88
2022-12-20T18:07:19.103Z,100751.31
2022-12-20T18:09:49.188Z,100751.31
2022-12-20T18:12:17.431Z,100758.34
2022-12-20T18:14:45.621Z,100754.03
2022-12-20T18:17:13.744Z,100751.31
2022-12-20T18:19:44.107Z,100751.97
2022-12-20T18:22:12.181Z,100757.22
2022-12-20T18:24:40.053Z,100754.84
2022-12-20T18:27:08.006Z,100758.19
2022-12-20T18:29:36.087Z,100753.88
2022-12-20T18:32:04.290Z,100756.13
2022-12-20T18:34:32.483Z,100756.91
2022-12-20T18:37:02.120Z,100752.94
2022-12-20T18:39:30.044Z,100764.13
2022-12-20T18:41:58.004Z,100757.88
2022-12-20T18:44:26.019Z,100749.25
2022-12-20T18:46:53.877Z,100750.38
2022-12-20T18:49:21.716Z,100742.69
2022-12-20T18:51:49.721Z,100742.06
2022-12-20T18:54:18.900Z,100746.03
2022-12-20T18:56:46.751Z,100745.72
2022-12-20T18:59:14.641Z,100750.03
2022-12-20T19:01:43.701Z,100747.63
2022-12-20T19:04:12.868Z,100747.50
2022-12-20T19:06:41.069Z,100755.31
2022-12-20T19:09:13.106Z,100755.66
2022-12-20T19:11:42.910Z,100755.97
2022-12-20T19:14:12.814Z,100754.34
2022-12-20T19:16:40.864Z,100751.63
2022-12-20T19:19:09.628Z,100759.00
2022-12-20T19:21:39.267Z,100751.97
2022-12-20T19:24:09.638Z,100750.38
2022-12-20T19:26:39.039Z,100748.78
2022-12-20T19:29:08.858Z,100754.81
2022-12-20T19:31:38.436Z,100744.59
2022-12-20T19:34:08.479Z,100750.84
2022-12-20T19:36:38.184Z,100754.81
2022-12-20T19:39:08.440Z,100754.53
2022-12-20T19:41:36.792Z,100746.06
2022-12-20T19:44:06.251Z,100744.94
2022-12-20T19:46:36.240Z,100747.66
2022-12-20T19:49:04.563Z,100751.16
2022-12-20T19:51:32.519Z,100746.53
2022-12-20T19:54:00.690Z,100746.06
2022-12-20T19:56:30.360Z,100743.97
2022-12-20T19:58:58.615Z,100743.97
2022-12-20T20:01:27.804Z,100743.97
2022-12-20T20:03:59.360Z,100745.88
2022-12-20T20:06:28.065Z,100752.44
2022-12-20T20:08:59.637Z,100757.41
2022-12-20T20:11:29.663Z,100753.41
2022-12-20T20:13:57.873Z,100754.50
2022-12-20T20:16:26.186Z,100751.00
2022-12-20T20:18:54.088Z,100759.66
2022-12-20T20:21:24.398Z,100756.13
2022-12-20T20:23:54.425Z,100755.34
2022-12-20T20:26:24.906Z,100750.03
2022-12-20T20:28:54.159Z,100755.94
2022-12-20T20:31:23.220Z,100747.19
2022-12-20T20:33:51.998Z,100749.56
2022-12-20T20:36:21.847Z,100746.53
2022-12-20T20:38:52.247Z,100746.53
2022-12-20T20:41:20.118Z,100743.34
2022-12-20T20:43:48.279Z,100754.81
2022-12-20T20:46:18.252Z,100742.38
2022-12-20T20:48:46.466Z,100739.66
2022-12-20T20:51:14.443Z,100740.78
2022-12-20T20:53:42.767Z,100732.63
2022-12-20T20:56:12.209Z,100729.91
2022-12-20T20:58:40.145Z,100720.63
2022-12-20T21:01:09.643Z,100719.50
2022-12-20T21:03:38.834Z,100727.66
2022-12-20T21:08:56.290Z,100733.09
2022-12-20T21:11:26.003Z,100721.59
2022-12-20T21:13:54.813Z,100727.50
2022-12-20T21:16:22.926Z,100727.50
2022-12-20T21:18:52.426Z,100735.03
2022-12-20T21:21:20.908Z,100726.88
2022-12-20T21:23:49.456Z,100722.53
2022-12-20T21:26:18.711Z,100722.53
2022-12-20T21:28:48.277Z,100727.19
2022-12-20T21:31:18.651Z,100725.59
2022-12-20T21:33:47.060Z,100719.34
2022-12-20T21:36:17.815Z,100716.97
2022-12-20T21:38:50.433Z,100735.50
2022-12-20T21:41:20.072Z,100732.47
2022-12-20T21:43:49.609Z,100729.28
2022-12-20T21:46:17.906Z,100738.53
2022-12-20T21:48:47.120Z,100736.13
2022-12-20T21:51:16.909Z,100729.91
2022-12-20T21:53:46.638Z,100728.63
2022-12-20T21:56:16.042Z,100728.16
2022-12-20T21:58:45.204Z,100725.44
2022-12-20T22:01:17.078Z,100728.63
2022-12-20T22:03:45.613Z,100722.88
2022-12-20T22:06:13.590Z,100723.66
2022-12-20T22:08:41.739Z,100736.94
2022-12-20T22:11:11.460Z,100732.28
2022-12-20T22:13:41.894Z,100732.28
2022-12-20T22:16:12.701Z,100741.25
2022-12-20T22:18:43.106Z,100736.13
2022-12-20T22:21:12.433Z,100731.50
2022-12-20T22:23:40.938Z,100724.94
2022-12-20T22:26:10.777Z,100718.41
2022-12-20T22:28:39.236Z,100726.06
2022-12-20T22:31:09.716Z,100724.47
2022-12-20T22:33:38.837Z,100727.97
2022-12-20T22:36:10.456Z,100724.47
2022-12-20T22:38:38.313Z,100720.16
2022-12-20T22:41:10.553Z,100726.72
2022-12-20T22:43:38.980Z,100730.56
2022-12-20T22:46:07.184Z,100727.50
2022-12-20T22:48:35.457Z,100734.22
2022-12-20T22:51:05.175Z,100740.16
2022-12-20T22:53:35.180Z,100740.63
2022-12-20T22:56:03.643Z,100729.75
2022-12-20T22:58:32.575Z,100737.91
2022-12-20T23:01:02.217Z,100742.22
2022-12-20T23:03:31.780Z,100744.94
2022-12-20T23:06:01.900Z,100746.53
2022-12-20T23:08:31.538Z,100754.69
2022-12-20T23:11:18.271Z,100746.06
2022-12-20T23:14:03.647Z,100744.47
2022-12-20T23:16:32.110Z,100730.06
2022-12-20T23:19:02.731Z,100742.06
2022-12-20T23:21:48.712Z,100753.75
2022-12-20T23:24:16.901Z,100753.22
2022-12-20T23:26:46.187Z,100753.22
2022-12-20T23:29:14.544Z,100756.28
2022-12-20T23:31:42.547Z,100758.66
2022-12-20T23:34:10.447Z,100757.06
2022-12-20T23:36:38.558Z,100752.44
2022-12-20T23:39:06.721Z,100758.66
2022-12-20T23:41:34.724Z,100754.81
2022-12-20T23:44:06.350Z,100753.22
2022-12-20T23:46:35.009Z,100760.25
2022-12-20T23:49:02.886Z,100755.47
2022-12-20T23:51:30.697Z,100759.31
2022-12-20T23:53:58.760Z,100762.34
2022-12-20T23:56:26.953Z,100763.97
2022-12-20T23:58:56.331Z,100762.03
